createdAt,value
2022-07-30T00:00:24.892Z,101660.19
2022-07-30T00:03:30.813Z,101666.59
2022-07-30T00:06:34.483Z,101662.41
2022-07-30T00:09:38.213Z,101670.28
2022-07-30T00:12:41.873Z,101667.78
2022-07-30T00:15:46.040Z,101663.66
2022-07-30T00:18:51.553Z,101660.13
2022-07-30T00:21:55.851Z,101656.25
2022-07-30T00:24:59.631Z,101658.06
2022-07-30T00:28:03.418Z,101666.09
2022-07-30T00:31:07.130Z,101668.34
2022-07-30T00:34:13.123Z,101656.94
2022-07-30T00:37:16.730Z,101658.28
2022-07-30T00:40:20.655Z,101660.94
2022-07-30T00:43:24.266Z,101662.81
2022-07-30T00:46:27.859Z,101660.47
2022-07-30T00:49:33.061Z,101652.94
2022-07-30T00:52:38.352Z,101652.31
2022-07-30T00:55:42.077Z,101649.19
2022-07-30T00:58:45.787Z,101654.25
2022-07-30T01:01:49.426Z,101652.31
2022-07-30T01:04:54.515Z,101643.63
2022-07-30T01:07:58.260Z,101640.13
2022-07-30T01:11:02.556Z,101637.41
2022-07-30T01:14:08.176Z,101643.72
2022-07-30T01:17:12.111Z,101635.00
2022-07-30T01:20:25.796Z,101636.56
2022-07-30T01:23:39.279Z,101625.00
2022-07-30T01:26:50.549Z,101632.41
2022-07-30T01:29:57.671Z,101620.31
2022-07-30T01:33:03.872Z,101615.94
2022-07-30T01:36:12.044Z,101618.59
2022-07-30T01:39:20.614Z,101607.28
2022-07-30T01:42:28.054Z,101617.88
2022-07-30T01:45:41.495Z,101611.88
2022-07-30T01:48:50.371Z,101606.03
2022-07-30T01:51:55.991Z,101607.94
2022-07-30T01:55:02.149Z,101607.94
2022-07-30T01:58:10.291Z,101608.09
2022-07-30T02:01:14.232Z,101599.38
2022-07-30T02:04:18.338Z,101602.97
2022-07-30T02:07:34.272Z,101603.13
2022-07-30T02:10:45.291Z,101599.81
2022-07-30T02:13:56.103Z,101599.13
2022-07-30T02:17:04.273Z,101599.41
2022-07-30T02:20:11.682Z,101596.16
2022-07-30T02:23:19.559Z,101593.16
2022-07-30T02:26:27.017Z,101590.56
2022-07-30T02:29:38.154Z,101595.22
2022-07-30T02:32:46.012Z,101588.59
2022-07-30T02:35:52.130Z,101591.44
2022-07-30T02:38:59.208Z,101591.63
2022-07-30T02:42:04.686Z,101590.53
2022-07-30T02:45:13.273Z,101593.63
2022-07-30T02:48:35.192Z,101594.69
2022-07-30T02:51:40.228Z,101597.59
2022-07-30T02:54:46.608Z,101595.00
2022-07-30T02:57:53.605Z,101598.66
2022-07-30T03:01:01.263Z,101604.09
2022-07-30T03:04:08.999Z,101597.34
2022-07-30T03:07:14.192Z,101602.78
2022-07-30T03:10:19.141Z,101598.34
2022-07-30T03:13:24.259Z,101604.50
2022-07-30T03:16:33.185Z,101605.56
2022-07-30T03:19:41.204Z,101608.22
2022-07-30T03:22:49.494Z,101610.06
2022-07-30T03:26:01.217Z,101606.50
2022-07-30T03:29:05.283Z,101616.34
2022-07-30T03:32:13.799Z,101613.06
2022-07-30T03:35:21.893Z,101615.03
2022-07-30T03:38:27.440Z,101617.75
2022-07-30T03:41:34.137Z,101610.16
2022-07-30T03:44:38.820Z,101608.56
2022-07-30T03:47:45.666Z,101614.69
2022-07-30T03:50:50.783Z,101614.03
2022-07-30T03:53:54.520Z,101613.38
2022-07-30T03:56:58.649Z,101610.97
2022-07-30T04:00:02.988Z,101612.69
2022-07-30T04:03:09.745Z,101617.94
2022-07-30T04:06:13.375Z,101611.91
2022-07-30T04:09:16.910Z,101619.66
2022-07-30T04:12:20.572Z,101609.72
2022-07-30T04:16:04.910Z,101612.38
2022-07-30T04:18:54.762Z,101619.44
2022-07-30T04:22:02.102Z,101612.25
2022-07-30T04:25:08.047Z,101615.69
2022-07-30T04:28:12.916Z,101619.13
2022-07-30T04:31:17.942Z,101622.63
2022-07-30T04:34:23.135Z,101624.53
2022-07-30T04:37:28.915Z,101624.66
2022-07-30T04:40:33.189Z,101615.22
2022-07-30T04:43:36.828Z,101624.66
2022-07-30T04:46:40.559Z,101621.72
2022-07-30T04:49:47.074Z,101626.88
2022-07-30T04:52:51.079Z,101626.59
2022-07-30T04:55:56.666Z,101632.28
2022-07-30T04:59:00.838Z,101637.56
2022-07-30T05:02:08.628Z,101635.88
2022-07-30T05:05:16.111Z,101647.97
2022-07-30T05:08:20.076Z,101646.69
2022-07-30T05:11:23.781Z,101649.06
2022-07-30T05:14:28.694Z,101645.13
2022-07-30T05:17:32.493Z,101644.72
2022-07-30T05:20:37.742Z,101648.88
2022-07-30T05:23:41.382Z,101653.69
2022-07-30T05:26:54.141Z,101658.19
2022-07-30T05:29:57.784Z,101655.78
2022-07-30T05:33:03.785Z,101646.13
2022-07-30T05:36:21.162Z,101647.38
2022-07-30T05:39:24.824Z,101655.81
2022-07-30T05:42:28.464Z,101652.06
2022-07-30T05:45:32.397Z,101661.75
2022-07-30T05:48:36.811Z,101654.94
2022-07-30T05:51:41.812Z,101662.34
2022-07-30T05:54:45.631Z,101663.81
2022-07-30T05:57:49.268Z,101666.94
2022-07-30T06:00:54.251Z,101657.75
2022-07-30T06:03:57.919Z,101662.81
2022-07-30T06:07:03.646Z,101653.31
2022-07-30T06:10:08.675Z,101664.28
2022-07-30T06:13:12.279Z,101663.78
2022-07-30T06:16:16.072Z,101669.41
2022-07-30T06:19:19.898Z,101681.56
2022-07-30T06:22:26.243Z,101688.53
2022-07-30T06:25:29.972Z,101681.59
2022-07-30T06:28:38.497Z,101681.22
2022-07-30T06:31:42.731Z,101685.66
2022-07-30T06:34:46.409Z,101694.41
2022-07-30T06:38:06.829Z,101694.50
2022-07-30T06:41:12.779Z,101701.97
2022-07-30T06:44:16.456Z,101699.31
2022-07-30T06:47:26.195Z,101699.19
2022-07-30T06:50:30.110Z,101703.09
2022-07-30T06:53:39.973Z,101698.34
2022-07-30T06:56:46.470Z,101706.25
2022-07-30T06:59:56.126Z,101700.88
2022-07-30T07:03:00.984Z,101703.75
2022-07-30T07:06:05.391Z,101699.75
2022-07-30T07:09:10.370Z,101686.72
2022-07-30T07:12:14.170Z,101690.13
2022-07-30T07:15:17.891Z,101694.72
2022-07-30T07:18:21.633Z,101689.66
2022-07-30T07:21:25.335Z,101693.81
2022-07-30T07:24:30.322Z,101695.13
2022-07-30T07:27:34.067Z,101696.91
2022-07-30T07:30:37.879Z,101692.94
2022-07-30T07:33:42.822Z,101701.97
2022-07-30T07:36:46.424Z,101695.06
2022-07-30T07:39:51.376Z,101692.00
2022-07-30T07:42:55.044Z,101689.38
2022-07-30T07:45:59.896Z,101686.72
2022-07-30T07:49:04.087Z,101691.66
2022-07-30T07:52:08.107Z,101687.75
2022-07-30T07:55:13.328Z,101682.81
2022-07-30T07:58:25.542Z,101685.09
2022-07-30T08:01:30.191Z,101683.41
2022-07-30T08:04:33.835Z,101682.63
2022-07-30T08:07:37.575Z,101685.00
2022-07-30T08:10:42.679Z,101678.63
2022-07-30T08:13:49.256Z,101674.22
2022-07-30T08:16:56.429Z,101683.28
2022-07-30T08:20:05.292Z,101673.13
2022-07-30T08:23:09.044Z,101668.00
2022-07-30T08:26:14.073Z,101673.44
2022-07-30T08:29:18.003Z,101673.88
2022-07-30T08:32:23.946Z,101674.38
2022-07-30T08:35:32.246Z,101680.31
2022-07-30T08:38:36.083Z,101677.88
2022-07-30T08:41:46.372Z,101685.97
2022-07-30T08:44:54.510Z,101688.47
2022-07-30T08:48:01.501Z,101688.75
2022-07-30T08:51:09.760Z,101694.34
2022-07-30T08:54:25.875Z,101694.34
2022-07-30T08:57:33.146Z,101689.41
2022-07-30T09:00:36.735Z,101700.13
2022-07-30T09:03:43.446Z,101700.06
2022-07-30T09:06:48.197Z,101700.88
2022-07-30T09:09:52.085Z,101697.88
2022-07-30T09:12:57.181Z,101700.22
2022-07-30T09:16:01.322Z,101705.31
2022-07-30T09:19:16.416Z,101704.25
2022-07-30T09:22:20.140Z,101701.09
2022-07-30T09:25:39.765Z,101706.50
2022-07-30T09:28:44.774Z,101697.56
2022-07-30T09:31:56.872Z,101693.81
2022-07-30T09:35:14.880Z,101697.75
2022-07-30T09:38:18.503Z,101697.78
2022-07-30T09:41:39.161Z,101699.66
2022-07-30T09:44:45.359Z,101695.66
2022-07-30T09:47:50.491Z,101696.41
2022-07-30T09:50:57.326Z,101698.91
2022-07-30T09:54:01.398Z,101697.25
2022-07-30T09:57:25.787Z,101698.97
2022-07-30T10:00:36.231Z,101691.47
2022-07-30T10:03:44.439Z,101693.13
2022-07-30T10:06:50.446Z,101690.94
2022-07-30T10:09:54.819Z,101698.91
2022-07-30T10:13:04.589Z,101684.41
2022-07-30T10:16:11.559Z,101681.91
2022-07-30T10:19:19.316Z,101685.03
2022-07-30T10:22:27.292Z,101694.84
2022-07-30T10:25:31.941Z,101689.34
2022-07-30T10:28:41.424Z,101695.09
2022-07-30T10:31:54.239Z,101687.97
2022-07-30T10:34:59.423Z,101682.94
2022-07-30T10:38:04.223Z,101693.72
2022-07-30T10:41:22.087Z,101692.19
2022-07-30T10:45:17.618Z,101686.00
2022-07-30T10:48:23.838Z,101694.84
2022-07-30T10:51:47.199Z,101686.09
2022-07-30T10:54:55.506Z,101695.59
2022-07-30T10:58:06.122Z,101688.41
2022-07-30T11:01:18.605Z,101684.66
2022-07-30T11:04:26.929Z,101678.28
2022-07-30T11:07:33.507Z,101687.75
2022-07-30T11:10:41.096Z,101681.47
2022-07-30T11:13:56.295Z,101690.16
2022-07-30T11:17:02.186Z,101686.59
2022-07-30T11:20:14.125Z,101684.03
2022-07-30T11:23:39.345Z,101685.88
2022-07-30T11:26:52.794Z,101686.88
2022-07-30T11:29:57.341Z,101693.13
2022-07-30T11:33:32.126Z,101682.59
2022-07-30T11:36:38.694Z,101680.63
2022-07-30T11:40:11.580Z,101674.56
2022-07-30T11:43:35.468Z,101673.88
2022-07-30T11:46:50.229Z,101671.41
2022-07-30T11:49:57.340Z,101674.16
2022-07-30T11:53:05.326Z,101670.31
2022-07-30T11:56:13.961Z,101672.75
2022-07-30T11:59:18.727Z,101667.16
2022-07-30T12:02:28.662Z,101669.69
2022-07-30T12:05:32.337Z,101661.22
2022-07-30T12:08:45.656Z,101664.75
2022-07-30T12:11:49.311Z,101660.38
2022-07-30T12:14:53.186Z,101662.84
2022-07-30T12:18:10.975Z,101659.59
2022-07-30T12:21:21.347Z,101660.50
2022-07-30T12:24:28.036Z,101657.66
2022-07-30T12:27:31.757Z,101664.06
2022-07-30T12:30:35.671Z,101656.41
2022-07-30T12:33:42.239Z,101661.50
2022-07-30T12:36:46.063Z,101655.75
2022-07-30T12:40:15.162Z,101660.41
2022-07-30T12:43:19.171Z,101652.56
2022-07-30T12:46:25.437Z,101657.78
2022-07-30T12:49:36.805Z,101652.66
2022-07-30T12:52:52.511Z,101655.38
2022-07-30T12:56:13.138Z,101651.00
2022-07-30T12:59:23.752Z,101649.72
2022-07-30T13:02:34.498Z,101650.41
2022-07-30T13:05:46.699Z,101653.59
2022-07-30T13:08:54.467Z,101645.03
2022-07-30T13:11:59.583Z,101644.31
2022-07-30T13:15:04.959Z,101642.94
2022-07-30T13:18:08.612Z,101644.25
2022-07-30T13:21:12.906Z,101644.44
2022-07-30T13:24:18.000Z,101646.84
2022-07-30T13:27:23.331Z,101642.44
2022-07-30T13:30:26.954Z,101645.81
2022-07-30T13:33:30.688Z,101644.00
2022-07-30T13:36:34.589Z,101640.63
2022-07-30T13:39:38.135Z,101640.31
2022-07-30T13:42:43.198Z,101648.81
2022-07-30T13:45:47.136Z,101644.66
2022-07-30T13:48:50.788Z,101643.66
2022-07-30T13:51:54.614Z,101638.34
2022-07-30T13:54:58.486Z,101640.72
2022-07-30T13:58:06.733Z,101635.88
2022-07-30T14:01:17.314Z,101640.25
2022-07-30T14:04:21.558Z,101634.50
2022-07-30T14:07:25.511Z,101630.38
2022-07-30T14:10:29.220Z,101634.28
2022-07-30T14:13:34.225Z,101633.13
2022-07-30T14:16:45.965Z,101638.63
2022-07-30T14:19:50.550Z,101631.13
2022-07-30T14:22:54.729Z,101640.09
2022-07-30T14:25:58.472Z,101639.91
2022-07-30T14:29:03.550Z,101644.63
2022-07-30T14:32:07.954Z,101637.16
2022-07-30T14:35:11.968Z,101639.13
2022-07-30T14:38:16.011Z,101630.84
2022-07-30T14:41:19.727Z,101634.25
2022-07-30T14:44:24.934Z,101639.00
2022-07-30T14:47:28.636Z,101633.03
2022-07-30T14:50:32.276Z,101632.66
2022-07-30T14:53:36.268Z,101627.06
2022-07-30T14:56:40.497Z,101629.00
2022-07-30T14:59:45.551Z,101619.69
2022-07-30T15:02:49.129Z,101632.28
2022-07-30T15:05:52.733Z,101621.06
2022-07-30T15:08:56.400Z,101626.38
2022-07-30T15:12:08.859Z,101632.25
2022-07-30T15:15:14.791Z,101625.19
2022-07-30T15:18:18.696Z,101626.66
2022-07-30T15:21:22.519Z,101633.13
2022-07-30T15:24:27.001Z,101626.88
2022-07-30T15:27:33.912Z,101621.09
2022-07-30T15:30:39.658Z,101620.41
2022-07-30T15:33:44.968Z,101613.97
2022-07-30T15:36:48.931Z,101614.94
2022-07-30T15:39:52.670Z,101611.94
2022-07-30T15:42:56.524Z,101605.81
2022-07-30T15:46:01.700Z,101603.59
2022-07-30T15:49:05.374Z,101607.53
2022-07-30T15:52:09.681Z,101602.06
2022-07-30T15:55:13.422Z,101605.78
2022-07-30T15:58:18.763Z,101610.31
2022-07-30T16:01:24.063Z,101599.00
2022-07-30T16:04:31.173Z,101607.03
2022-07-30T16:07:36.031Z,101602.03
2022-07-30T16:10:40.583Z,101607.94
2022-07-30T16:13:44.362Z,101607.06
2022-07-30T16:16:49.436Z,101612.22
2022-07-30T16:19:53.135Z,101612.72
2022-07-30T16:22:56.837Z,101610.88
2022-07-30T16:26:00.479Z,101615.16
2022-07-30T16:29:04.962Z,101608.59
2022-07-30T16:32:09.988Z,101606.63
2022-07-30T16:35:13.704Z,101606.63
2022-07-30T16:38:17.347Z,101612.25
2022-07-30T16:41:20.987Z,101612.63
2022-07-30T16:44:27.040Z,101612.72
2022-07-30T16:47:34.359Z,101615.91
2022-07-30T16:50:40.617Z,101627.16
2022-07-30T16:53:44.374Z,101644.19
2022-07-30T16:56:50.025Z,101652.53
2022-07-30T16:59:53.646Z,101665.56
2022-07-30T17:02:58.644Z,101679.72
2022-07-30T17:06:02.378Z,101675.25
2022-07-30T17:09:05.959Z,101680.53
2022-07-30T17:12:12.445Z,101688.25
2022-07-30T17:15:20.568Z,101700.50
2022-07-30T17:18:37.400Z,101695.53
2022-07-30T17:21:41.199Z,101697.56
2022-07-30T17:24:44.866Z,101715.97
2022-07-30T17:27:48.526Z,101716.41
2022-07-30T17:30:52.278Z,101716.44
2022-07-30T17:33:57.252Z,101720.53
2022-07-30T17:37:00.924Z,101720.81
2022-07-30T17:40:27.023Z,101722.91
2022-07-30T17:43:28.585Z,101726.34
2022-07-30T17:46:34.194Z,101729.28
2022-07-30T17:49:39.235Z,101727.88
2022-07-30T17:52:42.883Z,101734.38
2022-07-30T17:55:57.599Z,101738.69
2022-07-30T17:59:01.860Z,101751.06
2022-07-30T18:02:06.361Z,101745.56
2022-07-30T18:05:14.553Z,101751.22
2022-07-30T18:08:18.434Z,101751.41
2022-07-30T18:11:22.458Z,101744.72
2022-07-30T18:14:26.556Z,101752.25
2022-07-30T18:17:31.114Z,101747.81
2022-07-30T18:20:36.538Z,101748.59
2022-07-30T18:23:52.176Z,101749.00
2022-07-30T18:26:55.822Z,101752.78
2022-07-30T18:29:59.462Z,101758.00
2022-07-30T18:33:03.069Z,101751.22
2022-07-30T18:36:08.313Z,101754.16
2022-07-30T18:39:12.403Z,101757.66
2022-07-30T18:42:16.098Z,101757.09
2022-07-30T18:45:19.759Z,101759.56
2022-07-30T18:48:23.567Z,101761.03
2022-07-30T18:51:28.615Z,101762.75
2022-07-30T18:54:32.350Z,101765.50
2022-07-30T18:57:36.134Z,101775.97
2022-07-30T19:00:43.260Z,101772.47
2022-07-30T19:03:47.538Z,101772.91
2022-07-30T19:06:52.707Z,101762.25
2022-07-30T19:09:58.402Z,101768.59
2022-07-30T19:13:03.441Z,101767.81
2022-07-30T19:16:07.452Z,101766.78
2022-07-30T19:19:12.863Z,101777.25
2022-07-30T19:22:18.878Z,101780.00
2022-07-30T19:25:35.720Z,101789.25
2022-07-30T19:28:39.335Z,101787.53
2022-07-30T19:31:43.043Z,101783.19
2022-07-30T19:34:46.812Z,101794.06
2022-07-30T19:37:51.822Z,101799.81
2022-07-30T19:40:55.459Z,101804.50
2022-07-30T19:44:00.352Z,101810.00
2022-07-30T19:47:04.156Z,101809.47
2022-07-30T19:50:11.377Z,101815.03
2022-07-30T19:53:16.625Z,101815.19
2022-07-30T19:56:20.547Z,101819.97
2022-07-30T19:59:45.801Z,101831.78
2022-07-30T20:02:51.702Z,101823.34
2022-07-30T20:05:58.789Z,101828.97
2022-07-30T20:09:05.418Z,101835.66
2022-07-30T20:12:17.832Z,101835.34
2022-07-30T20:15:21.475Z,101841.00
2022-07-30T20:18:29.078Z,101840.19
2022-07-30T20:21:57.423Z,101839.09
2022-07-30T20:24:59.519Z,101845.16
2022-07-30T20:28:03.315Z,101844.16
2022-07-30T20:31:07.057Z,101853.44
2022-07-30T20:34:16.328Z,101854.28
2022-07-30T20:37:22.498Z,101858.16
2022-07-30T20:40:27.762Z,101868.00
2022-07-30T20:43:31.553Z,101871.50
2022-07-30T20:46:36.459Z,101876.09
2022-07-30T20:49:41.615Z,101874.28
2022-07-30T20:52:47.010Z,101884.81
2022-07-30T20:55:53.344Z,101884.53
2022-07-30T20:58:57.804Z,101877.66
2022-07-30T21:02:03.753Z,101877.16
2022-07-30T21:05:08.620Z,101875.56
2022-07-30T21:08:17.528Z,101866.75
2022-07-30T21:11:22.594Z,101871.19
2022-07-30T21:14:26.689Z,101872.13
2022-07-30T21:17:30.347Z,101874.00
2022-07-30T21:20:34.097Z,101864.44
2022-07-30T21:23:37.863Z,101864.44
2022-07-30T21:26:43.719Z,101865.59
2022-07-30T21:29:47.924Z,101866.44
2022-07-30T21:32:51.673Z,101864.84
2022-07-30T21:35:55.282Z,101866.56
2022-07-30T21:38:59.104Z,101860.28
2022-07-30T21:42:04.559Z,101847.94
2022-07-30T21:45:09.998Z,101852.25
2022-07-30T21:48:14.492Z,101843.31
2022-07-30T21:51:18.404Z,101848.09
2022-07-30T21:54:28.830Z,101852.13
2022-07-30T21:57:34.560Z,101854.00
2022-07-30T22:01:00.906Z,101853.03
2022-07-30T22:04:21.305Z,101852.25
2022-07-30T22:07:24.868Z,101858.41
2022-07-30T22:10:30.316Z,101861.28
2022-07-30T22:13:35.299Z,101858.69
2022-07-30T22:16:55.495Z,101865.44
2022-07-30T22:19:59.147Z,101852.50
2022-07-30T22:23:05.978Z,101858.91
2022-07-30T22:26:09.676Z,101853.09
2022-07-30T22:29:14.780Z,101853.19
2022-07-30T22:32:18.372Z,101856.88
2022-07-30T22:35:32.470Z,101851.75
2022-07-30T22:38:37.607Z,101857.03
2022-07-30T22:41:41.336Z,101857.19
2022-07-30T22:44:47.580Z,101853.63
2022-07-30T22:47:55.607Z,101848.44
2022-07-30T22:50:59.791Z,101843.16
2022-07-30T22:54:12.677Z,101846.72
2022-07-30T22:57:16.835Z,101837.84
2022-07-30T23:00:28.739Z,101834.22
2022-07-30T23:03:32.360Z,101828.38
2022-07-30T23:06:36.035Z,101825.59
2022-07-30T23:12:33.794Z,101824.69
2022-07-30T23:13:03.268Z,101823.63
2022-07-30T23:16:08.322Z,101812.97
2022-07-30T23:19:16.208Z,101810.16
2022-07-30T23:22:26.103Z,101813.72
2022-07-30T23:25:38.412Z,101808.44
2022-07-30T23:28:42.988Z,101805.66
2022-07-30T23:31:47.963Z,101810.16
2022-07-30T23:34:51.712Z,101806.78
2022-07-30T23:37:55.325Z,101810.41
2022-07-30T23:41:01.353Z,101803.53
2022-07-30T23:44:05.276Z,101808.06
2022-07-30T23:47:10.370Z,101806.59
2022-07-30T23:50:14.021Z,101801.44
2022-07-30T23:53:17.798Z,101807.53
2022-07-30T23:56:21.827Z,101805.00
2022-07-30T23:59:36.894Z,101801.69
